createdAt,value
2022-09-26T00:00:34.741Z,12.40
2022-09-26T00:03:02.660Z,12.60
2022-09-26T00:05:33.739Z,12.67
2022-09-26T00:08:01.609Z,13.29
2022-09-26T00:10:30.566Z,13.09
2022-09-26T00:12:58.143Z,13.07
2022-09-26T00:15:26.084Z,13.14
2022-09-26T00:17:53.756Z,13.03
2022-09-26T00:20:21.316Z,13.10
2022-09-26T00:22:48.863Z,12.84
2022-09-26T00:25:16.639Z,12.96
2022-09-26T00:27:45.455Z,13.30
2022-09-26T00:30:13.152Z,14.13
2022-09-26T00:32:40.624Z,14.55
2022-09-26T00:35:09.016Z,14.92
2022-09-26T00:37:36.502Z,15.02
2022-09-26T00:40:04.370Z,14.28
2022-09-26T00:42:31.948Z,14.75
2022-09-26T00:45:00.804Z,14.75
2022-09-26T00:47:38.069Z,14.87
2022-09-26T00:50:10.649Z,13.95
2022-09-26T00:52:42.403Z,13.57
2022-09-26T00:55:14.079Z,13.25
2022-09-26T00:57:46.340Z,12.58
2022-09-26T01:00:16.415Z,12.51
2022-09-26T01:02:45.533Z,12.15
2022-09-26T01:05:16.922Z,12.34
2022-09-26T01:07:45.120Z,12.27
2022-09-26T01:10:13.135Z,12.33
2022-09-26T01:12:40.699Z,12.51
2022-09-26T01:15:09.288Z,12.53
2022-09-26T01:17:39.733Z,13.20
2022-09-26T01:20:25.435Z,13.81
2022-09-26T01:23:26.611Z,14.14
2022-09-26T01:26:24.755Z,13.56
2022-09-26T01:29:28.810Z,13.22
2022-09-26T01:32:22.768Z,12.80
2022-09-26T01:34:59.363Z,12.68
2022-09-26T01:37:34.045Z,12.78
2022-09-26T01:40:11.749Z,13.01
2022-09-26T01:42:48.343Z,12.72
2022-09-26T01:45:19.925Z,12.35
2022-09-26T01:47:56.180Z,11.75
2022-09-26T01:50:34.773Z,11.67
2022-09-26T01:53:07.304Z,11.76
2022-09-26T01:55:40.805Z,11.57
2022-09-26T01:58:13.094Z,11.60
2022-09-26T02:00:43.284Z,11.63
2022-09-26T02:03:16.573Z,11.57
2022-09-26T02:05:47.536Z,11.52
2022-09-26T02:08:18.634Z,11.59
2022-09-26T02:10:49.430Z,11.58
2022-09-26T02:13:21.159Z,11.90
2022-09-26T02:15:53.337Z,12.02
2022-09-26T02:18:28.995Z,11.72
2022-09-26T02:21:02.135Z,12.01
2022-09-26T02:23:29.740Z,11.82
2022-09-26T02:25:57.273Z,11.65
2022-09-26T02:28:24.820Z,11.63
2022-09-26T02:30:55.350Z,11.87
2022-09-26T02:33:24.812Z,12.01
2022-09-26T02:35:54.434Z,11.83
2022-09-26T02:38:22.247Z,11.73
2022-09-26T02:40:56.860Z,11.58
2022-09-26T02:43:37.048Z,11.90
2022-09-26T02:46:18.980Z,11.75
2022-09-26T02:49:04.548Z,12.00
2022-09-26T02:51:49.747Z,11.85
2022-09-26T02:54:24.716Z,11.73
2022-09-26T02:57:11.515Z,11.63
2022-09-26T02:59:49.811Z,11.42
2022-09-26T03:02:20.582Z,11.44
2022-09-26T03:04:53.600Z,11.30
2022-09-26T03:07:25.148Z,11.60
2022-09-26T03:09:54.129Z,11.54
2022-09-26T03:12:23.909Z,11.52
2022-09-26T03:14:55.462Z,11.82
2022-09-26T03:17:26.896Z,11.80
2022-09-26T03:20:00.701Z,11.62
2022-09-26T03:22:28.373Z,11.49
2022-09-26T03:24:59.238Z,11.65
2022-09-26T03:27:27.691Z,11.36
2022-09-26T03:29:55.196Z,11.46
2022-09-26T03:32:22.727Z,11.57
2022-09-26T03:34:51.154Z,11.91
2022-09-26T03:37:20.008Z,11.93
2022-09-26T03:39:47.478Z,12.07
2022-09-26T03:42:16.662Z,11.82
2022-09-26T03:44:44.127Z,11.63
2022-09-26T03:47:11.606Z,11.45
2022-09-26T03:49:39.309Z,11.73
2022-09-26T03:52:07.304Z,11.83
2022-09-26T03:54:36.089Z,11.81
2022-09-26T03:57:03.771Z,11.74
2022-09-26T03:59:31.218Z,11.35
2022-09-26T04:01:58.880Z,11.65
2022-09-26T04:04:26.714Z,11.79
2022-09-26T04:06:54.172Z,11.59
2022-09-26T04:09:21.987Z,11.54
2022-09-26T04:11:51.096Z,11.86
2022-09-26T04:14:18.568Z,11.62
2022-09-26T04:16:46.173Z,11.52
2022-09-26T04:19:14.456Z,11.81
2022-09-26T04:21:42.733Z,11.82
2022-09-26T04:24:14.512Z,11.55
2022-09-26T04:26:42.815Z,11.69
2022-09-26T04:29:12.019Z,11.64
2022-09-26T04:31:40.300Z,12.14
2022-09-26T04:34:07.933Z,12.02
2022-09-26T04:36:35.460Z,11.85
2022-09-26T04:39:02.978Z,11.55
2022-09-26T04:41:31.387Z,11.34
2022-09-26T04:44:00.208Z,11.62
2022-09-26T04:46:31.381Z,12.07
2022-09-26T04:49:00.753Z,12.41
2022-09-26T04:51:29.582Z,12.17
2022-09-26T04:53:57.229Z,12.15
2022-09-26T04:56:26.508Z,11.80
2022-09-26T04:58:56.152Z,11.69
2022-09-26T05:01:24.019Z,12.06
2022-09-26T05:03:53.389Z,11.92
2022-09-26T05:06:20.856Z,12.07
2022-09-26T05:08:48.441Z,11.79
2022-09-26T05:11:17.180Z,12.02
2022-09-26T05:13:45.151Z,12.14
2022-09-26T05:16:14.425Z,12.06
2022-09-26T05:18:42.038Z,12.20
2022-09-26T05:21:11.068Z,12.35
2022-09-26T05:23:55.564Z,12.11
2022-09-26T05:26:27.299Z,11.51
2022-09-26T05:28:56.632Z,11.55
2022-09-26T05:31:26.200Z,11.52
2022-09-26T05:33:53.765Z,11.54
2022-09-26T05:36:22.581Z,11.51
2022-09-26T05:38:50.103Z,11.48
2022-09-26T05:41:17.229Z,11.75
2022-09-26T05:43:44.710Z,11.51
2022-09-26T05:46:12.828Z,11.74
2022-09-26T05:48:41.339Z,11.68
2022-09-26T05:51:11.732Z,11.59
2022-09-26T05:53:41.601Z,11.75
2022-09-26T05:56:12.733Z,11.98
2022-09-26T05:58:42.624Z,11.89
2022-09-26T06:01:12.711Z,12.26
2022-09-26T06:03:44.093Z,12.62
2022-09-26T06:06:13.079Z,12.32
2022-09-26T06:08:42.828Z,11.86
2022-09-26T06:11:12.857Z,12.06
2022-09-26T06:13:43.992Z,12.33
2022-09-26T06:16:14.441Z,12.10
2022-09-26T06:18:42.477Z,11.84
2022-09-26T06:21:12.714Z,12.03
2022-09-26T06:23:42.057Z,12.32
2022-09-26T06:26:12.304Z,12.14
2022-09-26T06:28:40.112Z,11.92
2022-09-26T06:31:10.654Z,11.88
2022-09-26T06:33:38.166Z,11.98
2022-09-26T06:36:07.650Z,11.98
2022-09-26T06:38:35.606Z,12.37
2022-09-26T06:41:05.332Z,11.96
2022-09-26T06:43:33.940Z,12.23
2022-09-26T06:46:01.530Z,12.76
2022-09-26T06:48:29.181Z,13.47
2022-09-26T06:51:00.401Z,14.15
2022-09-26T06:53:28.485Z,14.65
2022-09-26T06:55:56.125Z,15.10
2022-09-26T06:58:25.362Z,15.29
2022-09-26T07:00:52.950Z,15.20
2022-09-26T07:03:20.515Z,15.91
2022-09-26T07:05:48.001Z,15.49
2022-09-26T07:08:16.883Z,15.26
2022-09-26T07:10:44.360Z,14.42
2022-09-26T07:13:11.869Z,13.59
2022-09-26T07:15:40.715Z,13.63
2022-09-26T07:18:08.268Z,14.02
2022-09-26T07:20:39.938Z,14.52
2022-09-26T07:23:09.274Z,14.37
2022-09-26T07:25:39.367Z,14.33
2022-09-26T07:28:08.083Z,13.78
2022-09-26T07:30:35.639Z,14.33
2022-09-26T07:33:05.396Z,14.85
2022-09-26T07:35:34.433Z,15.45
2022-09-26T07:38:02.402Z,16.61
2022-09-26T07:40:30.043Z,17.25
2022-09-26T07:43:18.734Z,18.33
2022-09-26T07:46:05.159Z,20.50
2022-09-26T07:48:51.881Z,21.48
2022-09-26T07:51:20.668Z,18.57
2022-09-26T07:53:48.141Z,15.44
2022-09-26T07:56:16.410Z,16.14
2022-09-26T07:58:44.438Z,17.44
2022-09-26T08:01:14.567Z,18.85
2022-09-26T08:03:45.068Z,19.52
2022-09-26T08:06:14.603Z,18.96
2022-09-26T08:08:42.261Z,18.92
2022-09-26T08:11:15.918Z,16.29
2022-09-26T08:13:43.925Z,16.75
2022-09-26T08:16:12.298Z,17.83
2022-09-26T08:18:39.831Z,18.94
2022-09-26T08:21:08.904Z,18.70
2022-09-26T08:23:36.857Z,19.60
2022-09-26T08:26:05.076Z,21.41
2022-09-26T08:28:32.554Z,24.26
2022-09-26T08:31:05.258Z,24.91
2022-09-26T08:33:35.327Z,22.41
2022-09-26T08:36:08.308Z,20.35
2022-09-26T08:38:36.362Z,19.24
2022-09-26T08:41:17.296Z,17.95
2022-09-26T08:44:01.097Z,16.50
2022-09-26T08:46:48.871Z,16.96
2022-09-26T08:49:39.633Z,16.12
2022-09-26T08:52:22.121Z,15.64
2022-09-26T08:54:51.268Z,15.14
2022-09-26T08:57:34.258Z,15.06
2022-09-26T09:00:09.911Z,17.00
2022-09-26T09:02:42.577Z,19.09
2022-09-26T09:05:16.203Z,20.71
2022-09-26T09:07:49.822Z,19.09
2022-09-26T09:10:20.286Z,19.58
2022-09-26T09:13:03.421Z,18.61
2022-09-26T09:15:44.692Z,16.56
2022-09-26T09:18:22.642Z,15.09
2022-09-26T09:20:58.493Z,15.10
2022-09-26T09:23:46.556Z,14.80
2022-09-26T09:29:25.534Z,17.10
2022-09-26T09:31:55.544Z,16.70
2022-09-26T09:34:29.842Z,17.30
2022-09-26T09:37:00.193Z,18.63
2022-09-26T09:39:33.433Z,21.05
2022-09-26T09:42:07.624Z,22.64
2022-09-26T09:44:46.727Z,24.00
2022-09-26T09:47:16.508Z,25.06
2022-09-26T09:49:45.135Z,25.80
2022-09-26T09:52:27.256Z,25.99
2022-09-26T09:55:10.691Z,23.44
2022-09-26T09:58:05.911Z,22.40
2022-09-26T10:00:39.991Z,20.55
2022-09-26T10:03:18.371Z,20.39
2022-09-26T10:05:48.058Z,20.49
2022-09-26T10:08:19.319Z,19.61
2022-09-26T10:10:55.552Z,19.88
2022-09-26T10:13:26.087Z,21.86
2022-09-26T10:15:59.860Z,23.31
2022-09-26T10:18:27.879Z,23.33
2022-09-26T10:20:57.635Z,24.40
2022-09-26T10:23:32.724Z,25.10
2022-09-26T10:26:04.135Z,24.74
2022-09-26T10:28:37.509Z,24.26
2022-09-26T10:31:08.250Z,19.86
2022-09-26T10:33:38.815Z,19.98
2022-09-26T10:36:12.730Z,19.43
2022-09-26T10:39:10.728Z,18.83
2022-09-26T10:41:45.039Z,19.16
2022-09-26T10:44:24.211Z,19.95
2022-09-26T10:46:57.786Z,17.92
2022-09-26T10:49:31.960Z,19.30
2022-09-26T10:52:11.009Z,21.09
2022-09-26T10:54:45.623Z,20.70
2022-09-26T10:57:24.123Z,20.73
2022-09-26T10:59:54.217Z,19.34
2022-09-26T11:02:24.832Z,18.68
2022-09-26T11:05:14.419Z,18.18
2022-09-26T11:07:44.805Z,17.55
2022-09-26T11:10:15.278Z,18.29
2022-09-26T11:12:58.819Z,20.36
2022-09-26T11:15:28.560Z,20.92
2022-09-26T11:17:56.693Z,21.39
2022-09-26T11:20:44.639Z,22.80
2022-09-26T11:23:20.833Z,23.27
2022-09-26T11:25:57.963Z,23.35
2022-09-26T11:28:34.176Z,23.68
2022-09-26T11:31:08.892Z,24.30
2022-09-26T11:33:37.299Z,25.22
2022-09-26T11:36:19.788Z,23.33
2022-09-26T11:38:48.554Z,22.07
2022-09-26T11:41:41.958Z,20.80
2022-09-26T11:44:24.135Z,20.62
2022-09-26T11:47:06.807Z,20.85
2022-09-26T11:49:51.519Z,20.77
2022-09-26T11:52:37.553Z,20.75
2022-09-26T11:55:17.626Z,21.01
2022-09-26T11:57:54.200Z,20.73
2022-09-26T12:00:27.822Z,20.56
2022-09-26T12:03:39.405Z,20.04
2022-09-26T12:06:18.822Z,18.46
2022-09-26T12:09:00.384Z,18.57
2022-09-26T12:11:37.275Z,18.86
2022-09-26T12:14:13.919Z,18.68
2022-09-26T12:16:51.782Z,18.68
2022-09-26T12:19:26.176Z,18.36
2022-09-26T12:22:19.598Z,18.81
2022-09-26T12:24:58.343Z,19.99
2022-09-26T12:27:35.969Z,20.99
2022-09-26T12:30:10.107Z,21.27
2022-09-26T12:32:57.979Z,21.53
2022-09-26T12:35:43.195Z,22.01
2022-09-26T12:38:56.635Z,22.58
2022-09-26T12:41:44.601Z,20.59
2022-09-26T12:44:25.669Z,20.33
2022-09-26T12:47:08.269Z,19.94
2022-09-26T12:49:54.359Z,19.54
2022-09-26T12:52:37.331Z,18.81
2022-09-26T12:55:22.372Z,18.96
2022-09-26T12:58:02.336Z,19.02
2022-09-26T13:00:36.207Z,17.63
2022-09-26T13:03:36.939Z,18.53
2022-09-26T13:06:35.877Z,18.69
2022-09-26T13:09:20.870Z,19.93
2022-09-26T13:11:57.032Z,20.69
2022-09-26T13:14:51.711Z,19.35
2022-09-26T13:17:22.164Z,20.25
2022-09-26T13:19:56.861Z,20.32
2022-09-26T13:22:34.407Z,20.52
2022-09-26T13:25:07.346Z,21.22
2022-09-26T13:27:38.943Z,22.24
2022-09-26T13:30:14.931Z,22.65
2022-09-26T13:32:53.111Z,22.00
2022-09-26T13:35:23.400Z,20.97
2022-09-26T13:38:09.154Z,20.35
2022-09-26T13:40:42.359Z,19.63
2022-09-26T13:43:24.405Z,19.25
2022-09-26T13:46:02.068Z,19.19
2022-09-26T13:48:38.436Z,19.17
2022-09-26T13:51:18.260Z,19.68
2022-09-26T13:54:00.082Z,20.69
2022-09-26T13:56:47.479Z,20.27
2022-09-26T13:59:27.491Z,19.39
2022-09-26T14:02:15.700Z,20.73
2022-09-26T14:04:44.236Z,20.70
2022-09-26T14:07:36.967Z,21.18
2022-09-26T14:10:21.199Z,20.24
2022-09-26T14:13:06.538Z,20.15
2022-09-26T14:15:56.837Z,21.00
2022-09-26T14:18:38.896Z,21.69
2022-09-26T14:21:28.364Z,22.28
2022-09-26T14:24:26.970Z,23.24
2022-09-26T14:27:21.495Z,22.95
2022-09-26T14:29:53.280Z,21.99
2022-09-26T14:32:24.222Z,22.12
2022-09-26T14:34:57.238Z,21.99
2022-09-26T14:37:31.717Z,21.85
2022-09-26T14:40:16.032Z,21.52
2022-09-26T14:42:53.891Z,19.78
2022-09-26T14:45:26.143Z,20.30
2022-09-26T14:48:15.667Z,20.87
2022-09-26T14:50:48.506Z,20.98
2022-09-26T14:53:24.688Z,20.88
2022-09-26T14:56:00.059Z,21.05
2022-09-26T14:58:46.009Z,20.97
2022-09-26T15:01:19.158Z,20.21
2022-09-26T15:04:02.860Z,19.97
2022-09-26T15:06:31.562Z,19.61
2022-09-26T15:09:00.152Z,19.16
2022-09-26T15:11:44.299Z,19.48
2022-09-26T15:14:22.408Z,20.25
2022-09-26T15:16:54.642Z,20.47
2022-09-26T15:19:25.987Z,20.23
2022-09-26T15:21:59.080Z,19.92
2022-09-26T15:24:29.245Z,19.96
2022-09-26T15:26:59.315Z,19.80
2022-09-26T15:29:28.417Z,19.86
2022-09-26T15:31:57.572Z,20.07
2022-09-26T15:34:33.151Z,20.22
2022-09-26T15:37:02.137Z,19.76
2022-09-26T15:39:38.060Z,18.91
2022-09-26T15:42:39.108Z,18.95
2022-09-26T15:45:22.395Z,19.46
2022-09-26T15:47:50.073Z,19.30
2022-09-26T15:50:20.796Z,18.78
2022-09-26T15:52:55.090Z,18.01
2022-09-26T15:55:26.006Z,18.10
2022-09-26T15:57:56.798Z,17.81
2022-09-26T16:00:25.637Z,17.89
2022-09-26T16:02:53.686Z,17.72
2022-09-26T16:05:22.383Z,17.40
2022-09-26T16:07:52.850Z,17.01
2022-09-26T16:10:22.702Z,17.12
2022-09-26T16:12:50.199Z,17.44
2022-09-26T16:15:28.668Z,16.89
2022-09-26T16:17:59.455Z,16.45
2022-09-26T16:20:29.260Z,16.46
2022-09-26T16:23:03.326Z,16.44
2022-09-26T16:25:35.314Z,16.53
2022-09-26T16:28:21.923Z,16.59
2022-09-26T16:31:10.315Z,16.74
2022-09-26T16:33:40.801Z,16.61
2022-09-26T16:36:18.489Z,16.23
2022-09-26T16:38:52.358Z,16.16
2022-09-26T16:41:48.970Z,15.88
2022-09-26T16:44:27.639Z,15.61
2022-09-26T16:47:00.127Z,15.38
2022-09-26T16:49:42.078Z,15.20
2022-09-26T16:52:12.281Z,15.26
2022-09-26T16:54:39.815Z,15.25
2022-09-26T16:57:11.958Z,15.37
2022-09-26T16:59:39.411Z,15.61
2022-09-26T17:02:09.704Z,15.69
2022-09-26T17:04:38.998Z,15.33
2022-09-26T17:07:12.589Z,15.26
2022-09-26T17:09:41.907Z,15.40
2022-09-26T17:12:17.775Z,15.55
2022-09-26T17:14:48.308Z,15.69
2022-09-26T17:17:21.595Z,15.62
2022-09-26T17:19:58.243Z,15.43
2022-09-26T17:22:26.788Z,15.86
2022-09-26T17:24:54.936Z,15.61
2022-09-26T17:27:27.010Z,15.39
2022-09-26T17:29:59.499Z,15.47
2022-09-26T17:32:29.954Z,15.23
2022-09-26T17:35:01.107Z,15.25
2022-09-26T17:37:29.001Z,15.37
2022-09-26T17:39:56.991Z,15.39
2022-09-26T17:42:25.089Z,15.18
2022-09-26T17:44:52.523Z,15.08
2022-09-26T17:47:20.424Z,14.98
2022-09-26T17:49:56.212Z,14.92
2022-09-26T17:52:28.901Z,15.31
2022-09-26T17:54:58.535Z,15.45
2022-09-26T17:57:27.854Z,15.25
2022-09-26T17:59:55.378Z,15.11
2022-09-26T18:02:30.365Z,15.20
2022-09-26T18:05:03.128Z,15.26
2022-09-26T18:07:36.365Z,15.12
2022-09-26T18:10:07.271Z,14.90
2022-09-26T18:12:35.736Z,14.35
2022-09-26T18:15:05.240Z,14.53
2022-09-26T18:17:32.749Z,14.86
2022-09-26T18:20:00.204Z,14.76
2022-09-26T18:22:32.435Z,14.56
2022-09-26T18:25:05.814Z,14.98
2022-09-26T18:27:36.655Z,15.14
2022-09-26T18:30:05.253Z,14.92
2022-09-26T18:32:37.445Z,15.37
2022-09-26T18:35:05.301Z,15.48
2022-09-26T18:37:32.807Z,15.47
2022-09-26T18:40:04.425Z,15.18
2022-09-26T18:42:32.942Z,14.94
2022-09-26T18:45:03.478Z,14.88
2022-09-26T18:47:42.405Z,15.01
2022-09-26T18:50:19.473Z,14.85
2022-09-26T18:52:47.064Z,15.01
2022-09-26T18:55:37.715Z,15.12
2022-09-26T18:58:23.037Z,15.16
2022-09-26T19:00:54.335Z,14.95
2022-09-26T19:03:22.525Z,14.68
2022-09-26T19:05:50.479Z,14.78
2022-09-26T19:08:34.003Z,14.77
2022-09-26T19:11:07.843Z,14.75
2022-09-26T19:13:35.349Z,14.63
2022-09-26T19:16:02.994Z,14.55
2022-09-26T19:18:30.828Z,14.73
2022-09-26T19:20:58.437Z,14.81
2022-09-26T19:23:30.572Z,14.66
2022-09-26T19:25:58.067Z,14.57
2022-09-26T19:28:30.985Z,14.42
2022-09-26T19:30:58.545Z,14.43
2022-09-26T19:33:26.165Z,14.18
2022-09-26T19:35:53.838Z,14.25
2022-09-26T19:38:23.201Z,13.67
2022-09-26T19:40:53.232Z,13.74
2022-09-26T19:43:21.842Z,13.82
2022-09-26T19:45:53.122Z,14.16
2022-09-26T19:48:24.110Z,14.46
2022-09-26T19:50:52.436Z,14.50
2022-09-26T19:53:22.241Z,14.08
2022-09-26T19:55:50.347Z,13.39
2022-09-26T19:58:20.266Z,12.82
2022-09-26T20:00:51.391Z,12.10
2022-09-26T20:03:20.507Z,12.26
2022-09-26T20:05:49.299Z,12.12
2022-09-26T20:08:19.654Z,12.27
2022-09-26T20:10:48.166Z,12.38
2022-09-26T20:13:16.103Z,12.75
2022-09-26T20:15:44.204Z,12.82
2022-09-26T20:18:18.415Z,13.29
2022-09-26T20:20:48.593Z,13.87
2022-09-26T20:23:19.532Z,13.48
2022-09-26T20:25:47.137Z,13.37
2022-09-26T20:28:15.532Z,13.53
2022-09-26T20:30:51.473Z,13.03
2022-09-26T20:33:22.357Z,13.25
2022-09-26T20:35:53.532Z,13.07
2022-09-26T20:38:26.768Z,13.55
2022-09-26T20:41:01.453Z,13.78
2022-09-26T20:43:32.759Z,13.91
2022-09-26T20:46:02.766Z,14.03
2022-09-26T20:48:34.386Z,13.92
2022-09-26T20:51:02.179Z,13.92
2022-09-26T20:53:29.635Z,13.97
2022-09-26T20:55:57.230Z,13.98
2022-09-26T20:58:24.741Z,14.06
2022-09-26T21:00:53.550Z,14.07
2022-09-26T21:03:25.113Z,13.89
2022-09-26T21:05:53.961Z,13.82
2022-09-26T21:08:26.792Z,13.81
2022-09-26T21:10:55.855Z,13.75
2022-09-26T21:13:23.347Z,13.70
2022-09-26T21:15:52.007Z,13.70
2022-09-26T21:18:25.033Z,13.68
2022-09-26T21:20:55.135Z,13.63
2022-09-26T21:23:24.036Z,13.74
2022-09-26T21:25:51.488Z,13.69
2022-09-26T21:28:26.320Z,13.84
2022-09-26T21:30:55.545Z,13.43
2022-09-26T21:33:23.600Z,13.29
2022-09-26T21:35:51.777Z,13.43
2022-09-26T21:38:21.449Z,13.29
2022-09-26T21:40:53.199Z,13.23
2022-09-26T21:43:23.927Z,13.15
2022-09-26T21:45:51.516Z,13.21
2022-09-26T21:48:19.307Z,13.29
2022-09-26T21:50:55.328Z,13.42
2022-09-26T21:53:30.890Z,13.40
2022-09-26T21:56:07.500Z,13.48
2022-09-26T21:58:38.220Z,13.23
2022-09-26T22:01:06.080Z,13.16
2022-09-26T22:03:34.536Z,13.08
2022-09-26T22:06:07.216Z,13.12
2022-09-26T22:08:37.000Z,13.20
2022-09-26T22:11:05.377Z,12.99
2022-09-26T22:13:33.055Z,13.05
2022-09-26T22:16:05.943Z,13.04
2022-09-26T22:18:33.965Z,13.17
2022-09-26T22:21:03.800Z,13.34
2022-09-26T22:23:31.888Z,13.24
2022-09-26T22:26:00.938Z,13.42
2022-09-26T22:28:28.985Z,13.35
2022-09-26T22:30:56.699Z,13.19
2022-09-26T22:33:24.473Z,13.41
2022-09-26T22:35:52.051Z,13.38
2022-09-26T22:38:19.658Z,13.68
2022-09-26T22:40:55.346Z,13.68
2022-09-26T22:43:24.915Z,13.60
2022-09-26T22:45:52.938Z,13.45
2022-09-26T22:48:20.487Z,13.39
2022-09-26T22:50:47.959Z,13.28
2022-09-26T22:53:15.455Z,13.06
2022-09-26T22:55:42.919Z,12.99
2022-09-26T22:58:12.559Z,13.12
2022-09-26T23:00:41.744Z,13.23
2022-09-26T23:03:09.250Z,13.21
2022-09-26T23:05:36.739Z,13.37
2022-09-26T23:08:05.446Z,13.35
2022-09-26T23:10:33.195Z,13.49
2022-09-26T23:13:00.718Z,13.46
2022-09-26T23:15:28.181Z,13.33
2022-09-26T23:17:57.013Z,13.10
2022-09-26T23:20:24.531Z,12.90
2022-09-26T23:22:52.014Z,12.57
2022-09-26T23:25:19.512Z,12.83
2022-09-26T23:27:47.006Z,12.89
2022-09-26T23:30:14.567Z,12.95
2022-09-26T23:32:42.045Z,12.98
2022-09-26T23:35:10.985Z,12.96
2022-09-26T23:37:38.705Z,13.16
2022-09-26T23:40:07.243Z,13.51
2022-09-26T23:42:34.705Z,13.71
2022-09-26T23:45:02.172Z,13.75
2022-09-26T23:47:29.637Z,13.57
2022-09-26T23:49:57.156Z,13.40
2022-09-26T23:52:25.965Z,13.48
2022-09-26T23:54:53.543Z,13.48
2022-09-26T23:57:20.998Z,13.54
2022-09-26T23:59:48.448Z,13.69
